Time;durP1;ratioP1;P1;durP2;ratioP2;P2;SDS_P1;SDS_P2;PMS_P1;PMS_P2;Temp;Humidity;BMP_temperature;BMP_pressure;BME280_temperature;BME280_humidity;BME280_pressure;Samples;Min_cycle;Max_cycle;Signal;HPM_P1;HPM_P2
2024/02/29 14:53:33;;;;;;;4.93;4.43;;;;;;;14.05;100.00;97891.91;15302857;19;20070;-84
2024/02/29 15:05:57;;;;;;;4.80;4.40;;;;;;;14.14;100.00;97874.44;15305450;19;20018;-85
2024/02/29 15:11:47;;;;;;;4.57;4.10;;;;;;;14.18;100.00;97874.88;15313543;19;20037;-83
2024/02/29 15:17:26;;;;;;;6.82;4.47;;;;;;;13.89;100.00;97865.09;15308510;19;20351;-86
2024/02/29 15:22:51;;;;;;;5.35;4.85;;;;;;;13.75;100.00;97858.75;15298970;19;20387;-83
2024/02/29 15:28:23;;;;;;;6.75;4.65;;;;;;;13.71;100.00;97858.28;15302203;19;20006;-81
2024/02/29 15:33:51;;;;;;;5.05;4.50;;;;;;;13.42;100.00;97854.69;15303677;19;20006;-82
2024/02/29 15:39:15;;;;;;;5.07;4.57;;;;;;;12.86;100.00;97858.03;15299958;19;20019;-84
2024/02/29 15:44:41;;;;;;;5.88;5.28;;;;;;;12.63;100.00;97849.03;15314235;19;20007;-84
2024/02/29 15:50:23;;;;;;;5.35;4.85;;;;;;;12.45;100.00;97851.28;15301976;19;20018;-82
2024/02/29 15:55:49;;;;;;;5.70;5.20;;;;;;;12.19;100.00;97849.88;15313176;19;20021;-83
2024/02/29 16:01:19;;;;;;;5.80;5.20;;;;;;;11.96;100.00;97834.56;15313150;19;20014;-85
2024/02/29 16:06:54;;;;;;;5.68;5.15;;;;;;;11.60;100.00;97839.81;15306322;19;20040;-83
2024/02/29 16:12:19;;;;;;;6.20;5.60;;;;;;;11.22;100.00;97827.97;15303344;19;20006;-83
2024/02/29 16:17:44;;;;;;;6.80;5.20;;;;;;;10.64;100.00;97843.69;15306515;19;20010;-83
2024/02/29 16:23:11;;;;;;;6.20;5.53;;;;;;;10.24;100.00;97832.03;15293999;19;20348;-84
2024/02/29 16:28:36;;;;;;;6.22;5.63;;;;;;;9.80;100.00;97828.78;15302959;19;20042;-84
2024/02/29 16:34:00;;;;;;;6.90;6.30;;;;;;;9.43;100.00;97829.31;15304680;19;20021;-85
2024/02/29 16:39:28;;;;;;;7.20;6.40;;;;;;;9.13;100.00;97820.94;15298033;19;20011;-83
2024/02/29 16:44:52;;;;;;;7.05;6.35;;;;;;;8.88;100.00;97810.97;15296991;19;20019;-85
2024/02/29 16:50:53;;;;;;;7.10;6.40;;;;;;;8.61;100.00;97802.22;15295486;19;20043;-83
2024/02/29 16:56:22;;;;;;;7.30;6.60;;;;;;;8.30;100.00;97800.06;15302478;19;20027;-85
2024/02/29 17:01:47;;;;;;;6.82;6.13;;;;;;;8.07;100.00;97793.59;15289503;19;20041;-81
2024/02/29 17:07:12;;;;;;;8.43;6.70;;;;;;;7.89;100.00;97789.16;15294958;19;20006;-86
2024/02/29 17:12:49;;;;;;;7.00;6.30;;;;;;;7.74;100.00;97788.06;15297762;19;20078;-84
2024/02/29 17:18:33;;;;;;;8.68;7.10;;;;;;;7.54;100.00;97786.44;15304233;19;20013;-82
2024/02/29 17:23:58;;;;;;;7.55;6.70;;;;;;;7.38;100.00;97795.22;15301495;19;20007;-81
2024/02/29 17:29:26;;;;;;;8.10;7.30;;;;;;;7.21;100.00;97785.38;15301896;19;20021;-81
2024/02/29 17:34:52;;;;;;;7.50;6.70;;;;;;;7.06;100.00;97791.28;15303961;19;20024;-84
2024/02/29 17:40:17;;;;;;;8.98;7.05;;;;;;;6.93;100.00;97777.44;15301946;19;20020;-83
2024/02/29 17:45:50;;;;;;;8.20;7.22;;;;;;;6.82;100.00;97777.69;15291309;19;20341;-82
2024/02/29 17:51:15;;;;;;;8.70;7.43;;;;;;;6.71;100.00;97763.53;15301792;19;20022;-82
2024/02/29 17:56:41;;;;;;;8.80;7.40;;;;;;;6.59;100.00;97760.22;15292024;19;20019;-82
2024/02/29 18:02:11;;;;;;;10.60;7.55;;;;;;;6.47;100.00;97746.25;15288418;19;20015;-82
2024/02/29 18:07:41;;;;;;;7.70;6.90;;;;;;;6.38;100.00;97744.50;15284491;19;20554;-81
2024/02/29 18:13:16;;;;;;;8.18;7.38;;;;;;;6.30;100.00;97733.69;15286263;19;20044;-82
2024/02/29 18:18:44;;;;;;;10.25;8.45;;;;;;;6.20;100.00;97730.22;15287595;19;20082;-82
2024/02/29 18:24:10;;;;;;;8.38;7.32;;;;;;;6.09;100.00;97733.97;15292770;19;20371;-83
2024/02/29 18:29:36;;;;;;;8.25;7.43;;;;;;;5.97;100.00;97720.78;15300969;19;20054;-81
2024/02/29 18:35:08;;;;;;;8.25;7.32;;;;;;;5.85;100.00;97722.78;15303110;19;20018;-80
2024/02/29 18:40:32;;;;;;;9.00;7.90;;;;;;;5.75;100.00;97711.31;15310545;19;20041;-82
2024/02/29 18:45:57;;;;;;;8.23;7.13;;;;;;;5.64;100.00;97704.34;15301854;19;20028;-82
2024/02/29 18:51:33;;;;;;;8.32;7.30;;;;;;;5.55;100.00;97705.22;15339334;19;20023;-82
2024/02/29 18:56:58;;;;;;;8.80;7.72;;;;;;;5.45;100.00;97699.94;15315918;19;20011;-82
2024/02/29 19:02:22;;;;;;;9.27;7.80;;;;;;;5.35;100.00;97691.94;15320599;19;20085;-81
2024/02/29 19:07:51;;;;;;;9.90;7.97;;;;;;;5.25;100.00;97683.13;15322857;19;20018;-79
2024/02/29 19:13:16;;;;;;;10.38;8.00;;;;;;;5.15;100.00;97680.47;15287114;19;20010;-81
2024/02/29 19:18:41;;;;;;;9.27;8.25;;;;;;;5.08;100.00;97692.72;15313166;19;20006;-82
2024/02/29 19:24:11;;;;;;;10.50;8.35;;;;;;;4.99;100.00;97681.09;15310341;19;20078;-79
2024/02/29 19:29:36;;;;;;;9.13;8.20;;;;;;;4.87;100.00;97680.44;15306670;19;20039;-80
2024/02/29 19:35:00;;;;;;;9.30;7.90;;;;;;;4.84;100.00;97677.19;15304615;19;20015;-80
2024/02/29 19:40:28;;;;;;;8.73;7.70;;;;;;;4.83;100.00;97670.16;15304508;19;20414;-80
2024/02/29 19:45:53;;;;;;;9.38;8.05;;;;;;;4.81;100.00;97659.63;15302942;19;20020;-81
2024/02/29 19:51:19;;;;;;;9.88;8.25;;;;;;;4.78;100.00;97654.56;15305290;19;20050;-81
2024/02/29 19:56:46;;;;;;;10.02;8.38;;;;;;;4.81;100.00;97648.97;15308960;19;20015;-82
2024/02/29 20:02:11;;;;;;;10.77;8.60;;;;;;;4.84;100.00;97637.16;15307780;19;20030;-80
2024/02/29 20:07:36;;;;;;;12.93;9.00;;;;;;;4.81;100.00;97635.63;15297765;19;20019;-83
2024/02/29 20:13:05;;;;;;;10.68;8.77;;;;;;;4.77;100.00;97632.41;15306031;19;20035;-79
2024/02/29 20:18:30;;;;;;;12.20;9.20;;;;;;;4.71;100.00;97632.13;15300997;19;20014;-81
2024/02/29 20:24:01;;;;;;;10.80;9.05;;;;;;;4.70;100.00;97619.78;15313850;19;20059;-81
2024/02/29 20:29:29;;;;;;;11.70;9.00;;;;;;;4.64;100.00;97623.84;15244612;19;20097;-79
2024/02/29 20:34:53;;;;;;;10.98;8.85;;;;;;;4.61;100.00;97622.31;15292961;19;20015;-80
2024/02/29 20:40:19;;;;;;;12.57;8.80;;;;;;;4.62;100.00;97618.69;15293889;19;20486;-80
2024/02/29 20:45:47;;;;;;;12.00;9.10;;;;;;;4.63;100.00;97615.03;15287152;19;20200;-81
2024/02/29 20:51:18;;;;;;;11.60;9.23;;;;;;;4.60;100.00;97614.44;15290696;19;20102;-80
2024/02/29 20:56:44;;;;;;;13.00;9.43;;;;;;;4.59;100.00;97594.94;15289245;19;20489;-81
2024/02/29 21:02:11;;;;;;;11.52;9.10;;;;;;;4.57;100.00;97588.91;15287030;19;20263;-81
2024/02/29 21:07:36;;;;;;;11.63;9.07;;;;;;;4.57;100.00;97590.75;15291527;19;20422;-81
2024/02/29 21:13:01;;;;;;;12.57;9.32;;;;;;;4.57;100.00;97582.75;15287389;19;20054;-81
2024/02/29 21:18:29;;;;;;;12.25;8.55;;;;;;;4.58;100.00;97582.59;15289349;19;20539;-82
2024/02/29 21:23:53;;;;;;;12.20;8.95;;;;;;;4.60;100.00;97577.97;15299857;19;20015;-78
2024/02/29 21:29:18;;;;;;;11.68;8.82;;;;;;;4.66;100.00;97578.34;15040093;19;5000882;-81
2024/02/29 21:34:45;;;;;;;11.38;8.85;;;;;;;4.68;100.00;97571.03;15289459;19;20365;-80
2024/02/29 21:40:12;;;;;;;11.10;8.90;;;;;;;4.65;100.00;97566.00;15291953;19;20011;-80
2024/02/29 21:45:37;;;;;;;11.27;8.90;;;;;;;4.63;100.00;97555.47;15284055;19;20353;-79
2024/02/29 21:51:11;;;;;;;12.10;9.02;;;;;;;4.63;100.00;97561.66;15308359;19;20011;-80
2024/02/29 21:56:36;;;;;;;12.82;9.15;;;;;;;4.63;100.00;97555.47;15285199;19;20022;-80
2024/02/29 22:02:00;;;;;;;13.95;9.18;;;;;;;4.63;100.00;97553.66;15289726;19;20019;-80
2024/02/29 22:07:28;;;;;;;13.27;9.30;;;;;;;4.65;100.00;97548.16;15282050;19;20018;-80
2024/02/29 22:12:52;;;;;;;12.05;9.13;;;;;;;4.63;100.00;97544.81;15296851;19;20009;-80
2024/02/29 22:18:18;;;;;;;13.02;8.50;;;;;;;4.63;100.00;97550.13;15304670;19;20003;-81
2024/02/29 22:23:44;;;;;;;12.30;8.82;;;;;;;4.57;100.00;97548.06;15298361;19;20027;-80
2024/02/29 22:29:10;;;;;;;11.15;8.75;;;;;;;4.51;100.00;97540.63;15288724;19;20028;-49
2024/02/29 22:34:35;;;;;;;13.75;8.73;;;;;;;4.46;100.00;97535.72;15292997;19;20019;-48
2024/02/29 22:40:03;;;;;;;12.32;9.02;;;;;;;4.44;100.00;97519.03;15302864;19;20021;-50
2024/02/29 22:45:27;;;;;;;12.25;8.90;;;;;;;4.41;100.00;97514.84;15291719;19;20018;-49
2024/02/29 22:50:52;;;;;;;11.63;8.88;;;;;;;4.37;100.00;97507.28;15301707;19;20435;-49
2024/02/29 22:56:20;;;;;;;12.40;8.60;;;;;;;4.35;100.00;97498.56;15281077;19;20752;-53
2024/02/29 23:01:47;;;;;;;13.07;8.90;;;;;;;4.33;100.00;97506.72;15296157;19;20355;-52
2024/02/29 23:07:12;;;;;;;12.10;9.20;;;;;;;4.34;100.00;97507.56;15036912;19;5011420;-55
2024/02/29 23:12:40;;;;;;;14.15;8.95;;;;;;;4.29;100.00;97505.31;15301061;19;20017;-52
2024/02/29 23:18:06;;;;;;;12.63;9.05;;;;;;;4.21;100.00;97495.38;15298464;19;20026;-55
2024/02/29 23:23:31;;;;;;;11.35;9.35;;;;;;;4.15;100.00;97487.97;15292546;19;20037;-54
2024/02/29 23:28:59;;;;;;;12.80;9.07;;;;;;;4.07;100.00;97493.16;15289056;19;20090;-53
2024/02/29 23:34:23;;;;;;;12.73;9.77;;;;;;;3.94;100.00;97491.63;15293996;19;20021;-58
2024/02/29 23:39:47;;;;;;;13.20;9.70;;;;;;;3.86;100.00;97478.19;15298211;19;20014;-54
2024/02/29 23:45:15;;;;;;;13.90;10.52;;;;;;;3.78;100.00;97489.53;15291607;19;20028;-54
2024/02/29 23:50:40;;;;;;;13.57;9.75;;;;;;;3.75;100.00;97487.19;15299650;19;20021;-52
2024/02/29 23:56:04;;;;;;;13.85;10.77;;;;;;;3.70;100.00;97484.91;15289639;19;20019;-56
